sensor_id;sensor_type;location;lat;lon;timestamp;P1;durP1;ratioP1;P2;durP2;ratioP2
5539;SDS011;2792;52.452;9.752;2023-02-28T00:01:05;5.00;;;3.80;;
5539;SDS011;2792;52.452;9.752;2023-02-28T00:03:33;5.20;;;3.80;;
5539;SDS011;2792;52.452;9.752;2023-02-28T00:06:00;5.95;;;4.18;;
5539;SDS011;2792;52.452;9.752;2023-02-28T00:08:27;6.22;;;4.18;;
5539;SDS011;2792;52.452;9.752;2023-02-28T00:10:54;4.95;;;3.78;;
5539;SDS011;2792;52.452;9.752;2023-02-28T00:13:20;4.95;;;3.95;;
5539;SDS011;2792;52.452;9.752;2023-02-28T00:15:47;5.32;;;4.45;;
5539;SDS011;2792;52.452;9.752;2023-02-28T00:18:13;6.72;;;4.70;;
5539;SDS011;2792;52.452;9.752;2023-02-28T00:20:41;9.35;;;4.43;;
5539;SDS011;2792;52.452;9.752;2023-02-28T00:23:08;5.75;;;4.50;;
5539;SDS011;2792;52.452;9.752;2023-02-28T00:25:34;4.88;;;4.20;;
5539;SDS011;2792;52.452;9.752;2023-02-28T00:28:01;4.63;;;4.22;;
5539;SDS011;2792;52.452;9.752;2023-02-28T00:30:27;6.68;;;4.85;;
5539;SDS011;2792;52.452;9.752;2023-02-28T00:32:54;9.75;;;5.10;;
5539;SDS011;2792;52.452;9.752;2023-02-28T00:35:20;6.70;;;4.82;;
5539;SDS011;2792;52.452;9.752;2023-02-28T00:37:48;5.32;;;4.55;;
5539;SDS011;2792;52.452;9.752;2023-02-28T00:40:15;8.05;;;4.68;;
5539;SDS011;2792;52.452;9.752;2023-02-28T00:42:42;7.88;;;4.90;;
5539;SDS011;2792;52.452;9.752;2023-02-28T00:45:09;4.47;;;4.07;;
5539;SDS011;2792;52.452;9.752;2023-02-28T00:47:35;5.50;;;4.80;;
5539;SDS011;2792;52.452;9.752;2023-02-28T00:50:02;5.45;;;4.57;;
5539;SDS011;2792;52.452;9.752;2023-02-28T00:52:30;7.22;;;4.90;;
5539;SDS011;2792;52.452;9.752;2023-02-28T00:54:58;6.80;;;4.60;;
5539;SDS011;2792;52.452;9.752;2023-02-28T00:57:24;6.82;;;4.68;;
5539;SDS011;2792;52.452;9.752;2023-02-28T00:59:51;9.25;;;5.30;;
5539;SDS011;2792;52.452;9.752;2023-02-28T01:02:19;5.70;;;4.85;;
5539;SDS011;2792;52.452;9.752;2023-02-28T01:04:46;6.93;;;5.10;;
5539;SDS011;2792;52.452;9.752;2023-02-28T01:07:12;8.18;;;5.07;;
5539;SDS011;2792;52.452;9.752;2023-02-28T01:09:39;6.95;;;4.57;;
5539;SDS011;2792;52.452;9.752;2023-02-28T01:12:08;5.53;;;3.95;;
5539;SDS011;2792;52.452;9.752;2023-02-28T01:14:35;6.10;;;4.40;;
5539;SDS011;2792;52.452;9.752;2023-02-28T01:17:02;6.72;;;4.32;;
5539;SDS011;2792;52.452;9.752;2023-02-28T01:19:28;5.15;;;4.35;;
5539;SDS011;2792;52.452;9.752;2023-02-28T01:21:55;5.43;;;4.25;;
5539;SDS011;2792;52.452;9.752;2023-02-28T01:24:21;4.25;;;3.85;;
5539;SDS011;2792;52.452;9.752;2023-02-28T01:26:48;6.90;;;4.45;;
5539;SDS011;2792;52.452;9.752;2023-02-28T01:29:16;4.72;;;3.50;;
5539;SDS011;2792;52.452;9.752;2023-02-28T01:31:42;5.50;;;4.40;;
5539;SDS011;2792;52.452;9.752;2023-02-28T01:34:09;4.53;;;3.72;;
5539;SDS011;2792;52.452;9.752;2023-02-28T01:36:35;5.63;;;4.18;;
5539;SDS011;2792;52.452;9.752;2023-02-28T01:39:02;5.28;;;4.10;;
5539;SDS011;2792;52.452;9.752;2023-02-28T01:41:29;5.47;;;3.67;;
5539;SDS011;2792;52.452;9.752;2023-02-28T01:44:01;5.80;;;3.67;;
5539;SDS011;2792;52.452;9.752;2023-02-28T01:46:32;4.47;;;3.75;;
5539;SDS011;2792;52.452;9.752;2023-02-28T01:49:02;6.50;;;3.88;;
5539;SDS011;2792;52.452;9.752;2023-02-28T01:51:33;5.65;;;4.10;;
5539;SDS011;2792;52.452;9.752;2023-02-28T01:54:02;4.65;;;3.72;;
5539;SDS011;2792;52.452;9.752;2023-02-28T01:56:32;4.28;;;3.88;;
5539;SDS011;2792;52.452;9.752;2023-02-28T01:59:00;6.60;;;4.38;;
5539;SDS011;2792;52.452;9.752;2023-02-28T02:01:27;4.82;;;3.85;;
5539;SDS011;2792;52.452;9.752;2023-02-28T02:03:55;5.45;;;4.30;;
5539;SDS011;2792;52.452;9.752;2023-02-28T02:06:24;5.63;;;4.05;;
5539;SDS011;2792;52.452;9.752;2023-02-28T02:08:52;5.72;;;3.55;;
5539;SDS011;2792;52.452;9.752;2023-02-28T02:11:20;6.82;;;4.75;;
5539;SDS011;2792;52.452;9.752;2023-02-28T02:13:52;6.68;;;3.72;;
5539;SDS011;2792;52.452;9.752;2023-02-28T02:16:30;5.82;;;3.85;;
5539;SDS011;2792;52.452;9.752;2023-02-28T02:19:05;5.90;;;4.10;;
5539;SDS011;2792;52.452;9.752;2023-02-28T02:24:49;7.00;;;4.00;;
5539;SDS011;2792;52.452;9.752;2023-02-28T02:27:48;7.30;;;4.22;;
5539;SDS011;2792;52.452;9.752;2023-02-28T02:30:51;5.43;;;3.97;;
5539;SDS011;2792;52.452;9.752;2023-02-28T02:36:42;6.63;;;4.38;;
5539;SDS011;2792;52.452;9.752;2023-02-28T02:39:14;5.35;;;4.40;;
5539;SDS011;2792;52.452;9.752;2023-02-28T02:41:45;8.65;;;4.18;;
5539;SDS011;2792;52.452;9.752;2023-02-28T02:44:15;6.20;;;4.10;;
5539;SDS011;2792;52.452;9.752;2023-02-28T02:46:45;4.68;;;3.92;;
5539;SDS011;2792;52.452;9.752;2023-02-28T02:49:15;5.05;;;3.88;;
5539;SDS011;2792;52.452;9.752;2023-02-28T02:51:44;4.78;;;4.18;;
5539;SDS011;2792;52.452;9.752;2023-02-28T02:54:12;8.77;;;3.97;;
5539;SDS011;2792;52.452;9.752;2023-02-28T02:56:43;5.00;;;4.43;;
5539;SDS011;2792;52.452;9.752;2023-02-28T02:59:12;5.15;;;3.83;;
5539;SDS011;2792;52.452;9.752;2023-02-28T03:01:40;5.28;;;3.78;;
5539;SDS011;2792;52.452;9.752;2023-02-28T03:04:08;4.47;;;3.75;;
5539;SDS011;2792;52.452;9.752;2023-02-28T03:06:35;4.85;;;4.13;;
5539;SDS011;2792;52.452;9.752;2023-02-28T03:09:03;6.07;;;4.53;;
5539;SDS011;2792;52.452;9.752;2023-02-28T03:11:30;4.88;;;4.22;;
5539;SDS011;2792;52.452;9.752;2023-02-28T03:14:07;7.82;;;4.32;;
5539;SDS011;2792;52.452;9.752;2023-02-28T03:16:46;5.90;;;4.07;;
5539;SDS011;2792;52.452;9.752;2023-02-28T03:19:24;4.57;;;4.18;;
5539;SDS011;2792;52.452;9.752;2023-02-28T03:22:00;5.80;;;4.47;;
5539;SDS011;2792;52.452;9.752;2023-02-28T03:24:34;6.60;;;4.22;;
5539;SDS011;2792;52.452;9.752;2023-02-28T03:27:04;6.22;;;4.47;;
5539;SDS011;2792;52.452;9.752;2023-02-28T03:29:34;5.05;;;4.25;;
5539;SDS011;2792;52.452;9.752;2023-02-28T03:32:03;6.10;;;4.95;;
5539;SDS011;2792;52.452;9.752;2023-02-28T03:34:33;4.95;;;4.15;;
5539;SDS011;2792;52.452;9.752;2023-02-28T03:37:02;5.35;;;4.00;;
5539;SDS011;2792;52.452;9.752;2023-02-28T03:39:33;4.43;;;4.03;;
5539;SDS011;2792;52.452;9.752;2023-02-28T03:42:04;4.70;;;4.10;;
5539;SDS011;2792;52.452;9.752;2023-02-28T03:44:34;5.68;;;4.15;;
5539;SDS011;2792;52.452;9.752;2023-02-28T03:47:02;4.63;;;4.07;;
5539;SDS011;2792;52.452;9.752;2023-02-28T03:49:31;4.10;;;3.70;;
5539;SDS011;2792;52.452;9.752;2023-02-28T03:52:01;6.15;;;4.30;;
5539;SDS011;2792;52.452;9.752;2023-02-28T03:54:30;9.20;;;5.10;;
5539;SDS011;2792;52.452;9.752;2023-02-28T03:56:59;4.80;;;4.40;;
5539;SDS011;2792;52.452;9.752;2023-02-28T03:59:30;6.75;;;4.78;;
5539;SDS011;2792;52.452;9.752;2023-02-28T04:01:59;5.15;;;4.07;;
5539;SDS011;2792;52.452;9.752;2023-02-28T04:04:26;6.10;;;4.65;;
5539;SDS011;2792;52.452;9.752;2023-02-28T04:06:53;5.00;;;4.25;;
5539;SDS011;2792;52.452;9.752;2023-02-28T04:09:27;5.50;;;4.00;;
5539;SDS011;2792;52.452;9.752;2023-02-28T04:11:53;5.75;;;3.75;;
5539;SDS011;2792;52.452;9.752;2023-02-28T04:14:22;6.93;;;4.20;;
5539;SDS011;2792;52.452;9.752;2023-02-28T04:16:49;5.50;;;4.18;;
5539;SDS011;2792;52.452;9.752;2023-02-28T04:19:17;4.20;;;3.90;;
5539;SDS011;2792;52.452;9.752;2023-02-28T04:21:44;3.95;;;3.55;;
5539;SDS011;2792;52.452;9.752;2023-02-28T04:24:12;4.38;;;3.97;;
5539;SDS011;2792;52.452;9.752;2023-02-28T04:26:40;6.03;;;4.40;;
5539;SDS011;2792;52.452;9.752;2023-02-28T04:29:08;5.32;;;4.40;;
5539;SDS011;2792;52.452;9.752;2023-02-28T04:31:37;4.38;;;3.95;;
5539;SDS011;2792;52.452;9.752;2023-02-28T04:34:04;6.28;;;4.60;;
5539;SDS011;2792;52.452;9.752;2023-02-28T04:36:30;5.25;;;4.32;;
5539;SDS011;2792;52.452;9.752;2023-02-28T04:38:57;5.32;;;4.07;;
5539;SDS011;2792;52.452;9.752;2023-02-28T04:41:24;5.45;;;3.65;;
5539;SDS011;2792;52.452;9.752;2023-02-28T04:43:50;5.35;;;4.30;;
5539;SDS011;2792;52.452;9.752;2023-02-28T04:46:17;8.20;;;5.10;;
5539;SDS011;2792;52.452;9.752;2023-02-28T04:48:46;4.93;;;4.43;;
5539;SDS011;2792;52.452;9.752;2023-02-28T04:51:13;5.53;;;4.70;;
5539;SDS011;2792;52.452;9.752;2023-02-28T04:53:40;5.40;;;4.57;;
5539;SDS011;2792;52.452;9.752;2023-02-28T04:56:08;7.32;;;4.80;;
5539;SDS011;2792;52.452;9.752;2023-02-28T04:58:36;6.30;;;4.10;;
5539;SDS011;2792;52.452;9.752;2023-02-28T05:01:03;7.82;;;4.93;;
5539;SDS011;2792;52.452;9.752;2023-02-28T05:03:37;5.15;;;4.65;;
5539;SDS011;2792;52.452;9.752;2023-02-28T05:06:06;5.55;;;4.13;;
5539;SDS011;2792;52.452;9.752;2023-02-28T05:08:33;5.40;;;4.10;;
5539;SDS011;2792;52.452;9.752;2023-02-28T05:11:00;8.80;;;5.15;;
5539;SDS011;2792;52.452;9.752;2023-02-28T05:13:27;5.50;;;4.32;;
5539;SDS011;2792;52.452;9.752;2023-02-28T05:15:53;8.45;;;5.50;;
5539;SDS011;2792;52.452;9.752;2023-02-28T05:18:20;5.05;;;4.60;;
5539;SDS011;2792;52.452;9.752;2023-02-28T05:20:47;5.57;;;4.80;;
5539;SDS011;2792;52.452;9.752;2023-02-28T05:23:15;6.20;;;4.75;;
5539;SDS011;2792;52.452;9.752;2023-02-28T05:25:42;7.80;;;4.07;;
5539;SDS011;2792;52.452;9.752;2023-02-28T05:28:09;5.00;;;4.50;;
5539;SDS011;2792;52.452;9.752;2023-02-28T05:30:35;6.60;;;5.05;;
5539;SDS011;2792;52.452;9.752;2023-02-28T05:33:02;6.20;;;5.15;;
5539;SDS011;2792;52.452;9.752;2023-02-28T05:35:28;6.13;;;4.35;;
5539;SDS011;2792;52.452;9.752;2023-02-28T05:37:55;11.30;;;5.25;;
5539;SDS011;2792;52.452;9.752;2023-02-28T05:40:23;5.50;;;4.05;;
5539;SDS011;2792;52.452;9.752;2023-02-28T05:42:49;5.32;;;4.50;;
5539;SDS011;2792;52.452;9.752;2023-02-28T05:45:16;7.10;;;5.00;;
5539;SDS011;2792;52.452;9.752;2023-02-28T05:47:43;8.00;;;5.05;;
5539;SDS011;2792;52.452;9.752;2023-02-28T05:50:09;6.97;;;4.55;;
5539;SDS011;2792;52.452;9.752;2023-02-28T05:52:36;5.20;;;4.32;;
5539;SDS011;2792;52.452;9.752;2023-02-28T05:55:03;9.00;;;4.50;;
5539;SDS011;2792;52.452;9.752;2023-02-28T05:57:32;6.18;;;4.53;;
5539;SDS011;2792;52.452;9.752;2023-02-28T05:59:58;6.53;;;4.70;;
5539;SDS011;2792;52.452;9.752;2023-02-28T06:02:25;5.40;;;4.65;;
5539;SDS011;2792;52.452;9.752;2023-02-28T06:04:51;5.78;;;4.20;;
5539;SDS011;2792;52.452;9.752;2023-02-28T06:07:18;7.20;;;4.78;;
5539;SDS011;2792;52.452;9.752;2023-02-28T06:09:44;5.20;;;4.38;;
5539;SDS011;2792;52.452;9.752;2023-02-28T06:12:11;7.88;;;4.50;;
5539;SDS011;2792;52.452;9.752;2023-02-28T06:14:39;4.60;;;4.10;;
5539;SDS011;2792;52.452;9.752;2023-02-28T06:17:05;5.93;;;4.38;;
5539;SDS011;2792;52.452;9.752;2023-02-28T06:19:32;5.53;;;4.75;;
5539;SDS011;2792;52.452;9.752;2023-02-28T06:21:59;8.57;;;5.35;;
5539;SDS011;2792;52.452;9.752;2023-02-28T06:24:26;8.13;;;4.90;;
5539;SDS011;2792;52.452;9.752;2023-02-28T06:26:53;6.28;;;5.10;;
5539;SDS011;2792;52.452;9.752;2023-02-28T06:29:20;5.97;;;5.15;;
5539;SDS011;2792;52.452;9.752;2023-02-28T06:31:48;8.43;;;5.25;;
5539;SDS011;2792;52.452;9.752;2023-02-28T06:34:15;7.10;;;5.07;;
5539;SDS011;2792;52.452;9.752;2023-02-28T06:36:42;8.00;;;5.75;;
5539;SDS011;2792;52.452;9.752;2023-02-28T06:39:09;9.43;;;5.95;;
5539;SDS011;2792;52.452;9.752;2023-02-28T06:41:35;8.93;;;5.95;;
5539;SDS011;2792;52.452;9.752;2023-02-28T06:44:03;9.98;;;6.15;;
5539;SDS011;2792;52.452;9.752;2023-02-28T06:46:30;8.40;;;5.97;;
5539;SDS011;2792;52.452;9.752;2023-02-28T06:48:59;6.18;;;5.57;;
5539;SDS011;2792;52.452;9.752;2023-02-28T06:51:25;5.90;;;5.07;;
5539;SDS011;2792;52.452;9.752;2023-02-28T06:53:52;12.77;;;5.72;;
5539;SDS011;2792;52.452;9.752;2023-02-28T06:56:19;6.93;;;5.35;;
5539;SDS011;2792;52.452;9.752;2023-02-28T06:58:46;7.40;;;4.80;;
5539;SDS011;2792;52.452;9.752;2023-02-28T07:01:13;7.97;;;4.75;;
5539;SDS011;2792;52.452;9.752;2023-02-28T07:03:40;8.45;;;6.30;;
5539;SDS011;2792;52.452;9.752;2023-02-28T07:06:08;11.35;;;5.32;;
5539;SDS011;2792;52.452;9.752;2023-02-28T07:08:35;7.85;;;5.28;;
5539;SDS011;2792;52.452;9.752;2023-02-28T07:11:02;6.50;;;5.70;;
5539;SDS011;2792;52.452;9.752;2023-02-28T07:13:29;8.20;;;6.03;;
5539;SDS011;2792;52.452;9.752;2023-02-28T07:15:56;7.65;;;5.18;;
5539;SDS011;2792;52.452;9.752;2023-02-28T07:18:23;10.07;;;5.15;;
5539;SDS011;2792;52.452;9.752;2023-02-28T07:20:50;6.05;;;5.00;;
5539;SDS011;2792;52.452;9.752;2023-02-28T07:23:18;8.48;;;5.45;;
5539;SDS011;2792;52.452;9.752;2023-02-28T07:25:45;9.05;;;5.90;;
5539;SDS011;2792;52.452;9.752;2023-02-28T07:28:11;7.40;;;5.38;;
5539;SDS011;2792;52.452;9.752;2023-02-28T07:30:38;6.32;;;5.13;;
5539;SDS011;2792;52.452;9.752;2023-02-28T07:33:04;9.82;;;5.03;;
5539;SDS011;2792;52.452;9.752;2023-02-28T07:35:31;6.25;;;4.90;;
5539;SDS011;2792;52.452;9.752;2023-02-28T07:37:58;6.93;;;5.75;;
5539;SDS011;2792;52.452;9.752;2023-02-28T07:40:26;12.20;;;6.82;;
5539;SDS011;2792;52.452;9.752;2023-02-28T07:42:53;8.40;;;5.90;;
5539;SDS011;2792;52.452;9.752;2023-02-28T07:45:19;14.30;;;7.80;;
5539;SDS011;2792;52.452;9.752;2023-02-28T07:47:46;10.93;;;6.65;;
5539;SDS011;2792;52.452;9.752;2023-02-28T07:50:14;11.93;;;7.40;;
5539;SDS011;2792;52.452;9.752;2023-02-28T07:52:42;11.50;;;7.15;;
5539;SDS011;2792;52.452;9.752;2023-02-28T07:55:09;8.60;;;6.55;;
5539;SDS011;2792;52.452;9.752;2023-02-28T07:57:37;9.35;;;6.00;;
5539;SDS011;2792;52.452;9.752;2023-02-28T08:00:04;8.23;;;6.65;;
5539;SDS011;2792;52.452;9.752;2023-02-28T08:02:31;10.90;;;7.20;;
5539;SDS011;2792;52.452;9.752;2023-02-28T08:04:58;13.02;;;6.88;;
5539;SDS011;2792;52.452;9.752;2023-02-28T08:07:25;9.02;;;6.88;;
5539;SDS011;2792;52.452;9.752;2023-02-28T08:09:52;13.00;;;6.32;;
5539;SDS011;2792;52.452;9.752;2023-02-28T08:12:18;11.68;;;6.28;;
5539;SDS011;2792;52.452;9.752;2023-02-28T08:14:47;8.13;;;5.55;;
5539;SDS011;2792;52.452;9.752;2023-02-28T08:17:13;10.68;;;6.50;;
5539;SDS011;2792;52.452;9.752;2023-02-28T08:19:40;8.00;;;5.63;;
5539;SDS011;2792;52.452;9.752;2023-02-28T08:22:06;6.18;;;5.20;;
5539;SDS011;2792;52.452;9.752;2023-02-28T08:24:33;8.55;;;5.93;;
5539;SDS011;2792;52.452;9.752;2023-02-28T08:26:59;7.80;;;5.10;;
5539;SDS011;2792;52.452;9.752;2023-02-28T08:29:26;9.07;;;6.30;;
5539;SDS011;2792;52.452;9.752;2023-02-28T08:31:53;10.30;;;5.13;;
5539;SDS011;2792;52.452;9.752;2023-02-28T08:34:20;7.28;;;5.47;;
5539;SDS011;2792;52.452;9.752;2023-02-28T08:36:46;7.32;;;5.53;;
5539;SDS011;2792;52.452;9.752;2023-02-28T08:39:13;5.85;;;4.72;;
5539;SDS011;2792;52.452;9.752;2023-02-28T08:41:39;9.93;;;4.30;;
5539;SDS011;2792;52.452;9.752;2023-02-28T08:44:09;6.33;;;5.17;;
5539;SDS011;2792;52.452;9.752;2023-02-28T08:46:35;7.53;;;4.20;;
5539;SDS011;2792;52.452;9.752;2023-02-28T08:49:03;6.43;;;5.10;;
5539;SDS011;2792;52.452;9.752;2023-02-28T08:51:30;5.13;;;4.60;;
5539;SDS011;2792;52.452;9.752;2023-02-28T08:53:58;9.33;;;5.03;;
5539;SDS011;2792;52.452;9.752;2023-02-28T08:56:25;4.80;;;3.73;;
5539;SDS011;2792;52.452;9.752;2023-02-28T08:58:54;5.47;;;4.40;;
5539;SDS011;2792;52.452;9.752;2023-02-28T09:01:22;6.97;;;4.80;;
5539;SDS011;2792;52.452;9.752;2023-02-28T09:03:49;5.95;;;4.13;;
5539;SDS011;2792;52.452;9.752;2023-02-28T09:06:18;6.20;;;4.10;;
5539;SDS011;2792;52.452;9.752;2023-02-28T09:08:46;4.53;;;4.13;;
5539;SDS011;2792;52.452;9.752;2023-02-28T09:11:13;4.95;;;3.65;;
5539;SDS011;2792;52.452;9.752;2023-02-28T09:13:39;4.27;;;3.47;;
5539;SDS011;2792;52.452;9.752;2023-02-28T09:16:07;3.17;;;2.80;;
5539;SDS011;2792;52.452;9.752;2023-02-28T09:18:36;4.10;;;2.90;;
5539;SDS011;2792;52.452;9.752;2023-02-28T09:21:03;3.43;;;3.00;;
5539;SDS011;2792;52.452;9.752;2023-02-28T09:23:31;5.20;;;2.90;;
5539;SDS011;2792;52.452;9.752;2023-02-28T09:25:58;3.20;;;2.33;;
5539;SDS011;2792;52.452;9.752;2023-02-28T09:28:24;4.50;;;2.10;;
5539;SDS011;2792;52.452;9.752;2023-02-28T09:30:52;3.10;;;2.10;;
5539;SDS011;2792;52.452;9.752;2023-02-28T09:33:20;3.10;;;2.33;;
5539;SDS011;2792;52.452;9.752;2023-02-28T09:35:47;3.90;;;2.40;;
5539;SDS011;2792;52.452;9.752;2023-02-28T09:38:13;3.73;;;2.93;;
5539;SDS011;2792;52.452;9.752;2023-02-28T09:40:44;3.30;;;2.83;;
5539;SDS011;2792;52.452;9.752;2023-02-28T09:43:14;3.63;;;3.10;;
5539;SDS011;2792;52.452;9.752;2023-02-28T09:45:42;2.60;;;2.40;;
5539;SDS011;2792;52.452;9.752;2023-02-28T09:48:14;4.90;;;3.40;;
5539;SDS011;2792;52.452;9.752;2023-02-28T09:50:43;4.90;;;3.07;;
5539;SDS011;2792;52.452;9.752;2023-02-28T09:53:13;3.10;;;2.27;;
5539;SDS011;2792;52.452;9.752;2023-02-28T09:55:44;3.30;;;2.30;;
5539;SDS011;2792;52.452;9.752;2023-02-28T09:58:15;2.30;;;2.10;;
5539;SDS011;2792;52.452;9.752;2023-02-28T10:00:46;3.07;;;2.10;;
5539;SDS011;2792;52.452;9.752;2023-02-28T10:03:24;5.33;;;2.13;;
5539;SDS011;2792;52.452;9.752;2023-02-28T10:05:54;4.80;;;3.57;;
5539;SDS011;2792;52.452;9.752;2023-02-28T10:08:24;5.63;;;4.53;;
5539;SDS011;2792;52.452;9.752;2023-02-28T10:10:53;7.13;;;6.00;;
5539;SDS011;2792;52.452;9.752;2023-02-28T10:13:23;4.53;;;3.17;;
5539;SDS011;2792;52.452;9.752;2023-02-28T10:15:52;2.10;;;1.70;;
5539;SDS011;2792;52.452;9.752;2023-02-28T10:18:22;3.90;;;2.93;;
5539;SDS011;2792;52.452;9.752;2023-02-28T10:20:51;10.33;;;5.97;;
5539;SDS011;2792;52.452;9.752;2023-02-28T10:23:19;6.00;;;3.37;;
5539;SDS011;2792;52.452;9.752;2023-02-28T10:25:53;3.23;;;2.40;;
5539;SDS011;2792;52.452;9.752;2023-02-28T10:28:23;2.23;;;2.03;;
5539;SDS011;2792;52.452;9.752;2023-02-28T10:30:52;2.80;;;2.43;;
5539;SDS011;2792;52.452;9.752;2023-02-28T10:33:21;2.00;;;1.80;;
5539;SDS011;2792;52.452;9.752;2023-02-28T10:35:49;5.10;;;4.23;;
5539;SDS011;2792;52.452;9.752;2023-02-28T10:38:17;9.00;;;6.20;;
5539;SDS011;2792;52.452;9.752;2023-02-28T10:40:44;2.20;;;1.50;;
5539;SDS011;2792;52.452;9.752;2023-02-28T10:43:20;2.20;;;1.53;;
5539;SDS011;2792;52.452;9.752;2023-02-28T10:48:40;2.50;;;1.50;;
5539;SDS011;2792;52.452;9.752;2023-02-28T10:51:08;2.43;;;2.23;;
5539;SDS011;2792;52.452;9.752;2023-02-28T10:53:44;2.60;;;1.33;;
5539;SDS011;2792;52.452;9.752;2023-02-28T10:56:16;1.70;;;1.60;;
5539;SDS011;2792;52.452;9.752;2023-02-28T10:58:49;2.37;;;1.90;;
5539;SDS011;2792;52.452;9.752;2023-02-28T11:01:19;2.30;;;1.20;;
5539;SDS011;2792;52.452;9.752;2023-02-28T11:03:46;3.23;;;1.53;;
5539;SDS011;2792;52.452;9.752;2023-02-28T11:06:15;3.50;;;1.20;;
5539;SDS011;2792;52.452;9.752;2023-02-28T11:08:44;1.80;;;1.37;;
5539;SDS011;2792;52.452;9.752;2023-02-28T11:11:12;1.63;;;1.00;;
5539;SDS011;2792;52.452;9.752;2023-02-28T11:13:38;0.80;;;0.80;;
5539;SDS011;2792;52.452;9.752;2023-02-28T11:16:09;3.63;;;1.47;;
5539;SDS011;2792;52.452;9.752;2023-02-28T11:18:38;1.10;;;1.00;;
5539;SDS011;2792;52.452;9.752;2023-02-28T11:21:07;1.20;;;1.10;;
5539;SDS011;2792;52.452;9.752;2023-02-28T11:23:35;1.20;;;1.10;;
5539;SDS011;2792;52.452;9.752;2023-02-28T11:26:04;1.53;;;1.10;;
5539;SDS011;2792;52.452;9.752;2023-02-28T11:28:35;2.20;;;1.00;;
5539;SDS011;2792;52.452;9.752;2023-02-28T11:31:04;1.90;;;1.23;;
5539;SDS011;2792;52.452;9.752;2023-02-28T11:33:37;3.83;;;1.20;;
5539;SDS011;2792;52.452;9.752;2023-02-28T11:36:09;0.80;;;0.73;;
5539;SDS011;2792;52.452;9.752;2023-02-28T11:38:38;2.20;;;1.00;;
5539;SDS011;2792;52.452;9.752;2023-02-28T11:41:08;1.23;;;0.93;;
5539;SDS011;2792;52.452;9.752;2023-02-28T11:43:51;0.90;;;0.90;;
5539;SDS011;2792;52.452;9.752;2023-02-28T11:46:24;0.90;;;0.90;;
5539;SDS011;2792;52.452;9.752;2023-02-28T11:48:54;1.40;;;1.27;;
5539;SDS011;2792;52.452;9.752;2023-02-28T11:51:27;1.70;;;1.03;;
5539;SDS011;2792;52.452;9.752;2023-02-28T11:53:58;1.07;;;1.00;;
5539;SDS011;2792;52.452;9.752;2023-02-28T11:56:36;1.23;;;1.10;;
5539;SDS011;2792;52.452;9.752;2023-02-28T11:59:17;1.03;;;1.03;;
5539;SDS011;2792;52.452;9.752;2023-02-28T12:02:00;2.40;;;1.20;;
5539;SDS011;2792;52.452;9.752;2023-02-28T12:04:37;1.43;;;1.10;;
5539;SDS011;2792;52.452;9.752;2023-02-28T12:07:09;2.97;;;1.10;;
5539;SDS011;2792;52.452;9.752;2023-02-28T12:09:43;1.23;;;1.13;;
5539;SDS011;2792;52.452;9.752;2023-02-28T12:12:21;1.13;;;1.03;;
5539;SDS011;2792;52.452;9.752;2023-02-28T12:14:57;6.93;;;1.67;;
5539;SDS011;2792;52.452;9.752;2023-02-28T12:17:34;1.33;;;1.10;;
5539;SDS011;2792;52.452;9.752;2023-02-28T12:20:12;2.03;;;1.03;;
5539;SDS011;2792;52.452;9.752;2023-02-28T12:22:43;3.00;;;1.43;;
5539;SDS011;2792;52.452;9.752;2023-02-28T12:28:08;1.50;;;1.10;;
5539;SDS011;2792;52.452;9.752;2023-02-28T12:30:35;3.27;;;1.20;;
5539;SDS011;2792;52.452;9.752;2023-02-28T12:33:07;5.60;;;1.07;;
5539;SDS011;2792;52.452;9.752;2023-02-28T12:35:37;3.60;;;2.50;;
5539;SDS011;2792;52.452;9.752;2023-02-28T12:38:08;2.17;;;1.53;;
5539;SDS011;2792;52.452;9.752;2023-02-28T12:40:41;1.60;;;1.50;;
5539;SDS011;2792;52.452;9.752;2023-02-28T12:43:11;2.63;;;1.30;;
5539;SDS011;2792;52.452;9.752;2023-02-28T12:45:40;1.47;;;1.30;;
5539;SDS011;2792;52.452;9.752;2023-02-28T12:48:08;1.60;;;1.40;;
5539;SDS011;2792;52.452;9.752;2023-02-28T12:50:40;2.80;;;1.67;;
5539;SDS011;2792;52.452;9.752;2023-02-28T12:53:08;5.10;;;2.67;;
5539;SDS011;2792;52.452;9.752;2023-02-28T12:55:39;2.93;;;2.03;;
5539;SDS011;2792;52.452;9.752;2023-02-28T12:58:11;2.63;;;1.90;;
5539;SDS011;2792;52.452;9.752;2023-02-28T13:00:43;1.70;;;1.60;;
5539;SDS011;2792;52.452;9.752;2023-02-28T13:03:24;4.37;;;1.70;;
5539;SDS011;2792;52.452;9.752;2023-02-28T13:06:12;3.20;;;1.90;;
5539;SDS011;2792;52.452;9.752;2023-02-28T13:11:32;1.90;;;1.80;;
5539;SDS011;2792;52.452;9.752;2023-02-28T13:14:00;2.23;;;1.97;;
5539;SDS011;2792;52.452;9.752;2023-02-28T13:16:42;3.00;;;1.67;;
5539;SDS011;2792;52.452;9.752;2023-02-28T13:19:17;2.03;;;1.87;;
5539;SDS011;2792;52.452;9.752;2023-02-28T13:21:45;2.47;;;1.70;;
5539;SDS011;2792;52.452;9.752;2023-02-28T13:24:35;2.47;;;1.50;;
5539;SDS011;2792;52.452;9.752;2023-02-28T13:27:12;3.03;;;1.90;;
5539;SDS011;2792;52.452;9.752;2023-02-28T13:29:49;2.00;;;1.73;;
5539;SDS011;2792;52.452;9.752;2023-02-28T13:32:28;2.03;;;1.83;;
5539;SDS011;2792;52.452;9.752;2023-02-28T13:44:00;1.70;;;1.60;;
5539;SDS011;2792;52.452;9.752;2023-02-28T13:46:27;3.07;;;1.63;;
5539;SDS011;2792;52.452;9.752;2023-02-28T13:48:54;3.90;;;1.70;;
5539;SDS011;2792;52.452;9.752;2023-02-28T13:51:38;1.87;;;1.77;;
5539;SDS011;2792;52.452;9.752;2023-02-28T13:54:15;1.73;;;1.53;;
5539;SDS011;2792;52.452;9.752;2023-02-28T13:56:45;2.43;;;1.90;;
5539;SDS011;2792;52.452;9.752;2023-02-28T13:59:17;3.67;;;2.40;;
5539;SDS011;2792;52.452;9.752;2023-02-28T14:01:54;3.60;;;2.20;;
5539;SDS011;2792;52.452;9.752;2023-02-28T14:07:23;1.83;;;1.70;;
5539;SDS011;2792;52.452;9.752;2023-02-28T14:10:00;1.73;;;1.63;;
5539;SDS011;2792;52.452;9.752;2023-02-28T14:21:01;2.83;;;2.00;;
5539;SDS011;2792;52.452;9.752;2023-02-28T14:23:38;3.40;;;1.97;;
5539;SDS011;2792;52.452;9.752;2023-02-28T14:26:31;3.00;;;2.00;;
5539;SDS011;2792;52.452;9.752;2023-02-28T14:29:16;2.97;;;1.47;;
5539;SDS011;2792;52.452;9.752;2023-02-28T14:31:49;4.07;;;1.53;;
5539;SDS011;2792;52.452;9.752;2023-02-28T14:34:25;1.90;;;1.80;;
5539;SDS011;2792;52.452;9.752;2023-02-28T14:36:58;2.50;;;1.90;;
5539;SDS011;2792;52.452;9.752;2023-02-28T14:39:26;1.97;;;1.40;;
5539;SDS011;2792;52.452;9.752;2023-02-28T14:41:57;1.83;;;1.70;;
5539;SDS011;2792;52.452;9.752;2023-02-28T14:44:28;4.87;;;2.10;;
5539;SDS011;2792;52.452;9.752;2023-02-28T14:46:55;2.47;;;1.80;;
5539;SDS011;2792;52.452;9.752;2023-02-28T14:49:24;8.90;;;1.90;;
5539;SDS011;2792;52.452;9.752;2023-02-28T14:52:01;2.20;;;2.00;;
5539;SDS011;2792;52.452;9.752;2023-02-28T14:54:30;2.53;;;2.30;;
5539;SDS011;2792;52.452;9.752;2023-02-28T14:56:59;3.63;;;2.67;;
5539;SDS011;2792;52.452;9.752;2023-02-28T14:59:27;1.90;;;1.40;;
5539;SDS011;2792;52.452;9.752;2023-02-28T15:02:14;1.50;;;1.40;;
5539;SDS011;2792;52.452;9.752;2023-02-28T15:04:51;1.90;;;1.70;;
5539;SDS011;2792;52.452;9.752;2023-02-28T15:07:19;1.70;;;1.60;;
5539;SDS011;2792;52.452;9.752;2023-02-28T15:10:06;2.43;;;2.00;;
5539;SDS011;2792;52.452;9.752;2023-02-28T15:12:39;2.07;;;1.73;;
5539;SDS011;2792;52.452;9.752;2023-02-28T15:15:06;2.53;;;1.80;;
5539;SDS011;2792;52.452;9.752;2023-02-28T15:17:40;4.17;;;2.00;;
5539;SDS011;2792;52.452;9.752;2023-02-28T15:20:10;1.80;;;1.53;;
5539;SDS011;2792;52.452;9.752;2023-02-28T15:22:38;3.40;;;2.60;;
5539;SDS011;2792;52.452;9.752;2023-02-28T15:25:06;2.37;;;1.80;;
5539;SDS011;2792;52.452;9.752;2023-02-28T15:27:35;1.63;;;1.53;;
5539;SDS011;2792;52.452;9.752;2023-02-28T15:30:13;7.57;;;1.60;;
5539;SDS011;2792;52.452;9.752;2023-02-28T15:32:41;2.27;;;1.57;;
5539;SDS011;2792;52.452;9.752;2023-02-28T15:35:18;1.50;;;1.40;;
5539;SDS011;2792;52.452;9.752;2023-02-28T15:37:47;1.90;;;1.60;;
5539;SDS011;2792;52.452;9.752;2023-02-28T15:40:15;2.60;;;1.70;;
5539;SDS011;2792;52.452;9.752;2023-02-28T15:42:57;1.70;;;1.60;;
5539;SDS011;2792;52.452;9.752;2023-02-28T15:45:28;3.30;;;2.00;;
5539;SDS011;2792;52.452;9.752;2023-02-28T15:48:00;1.50;;;1.40;;
5539;SDS011;2792;52.452;9.752;2023-02-28T15:50:27;2.23;;;2.00;;
5539;SDS011;2792;52.452;9.752;2023-02-28T15:52:54;1.80;;;1.70;;
5539;SDS011;2792;52.452;9.752;2023-02-28T15:55:21;1.97;;;1.80;;
5539;SDS011;2792;52.452;9.752;2023-02-28T15:57:51;2.00;;;1.90;;
5539;SDS011;2792;52.452;9.752;2023-02-28T16:00:20;2.50;;;2.10;;
5539;SDS011;2792;52.452;9.752;2023-02-28T16:02:47;2.37;;;2.17;;
5539;SDS011;2792;52.452;9.752;2023-02-28T16:05:22;4.40;;;1.80;;